sensor_id;sensor_type;location;lat;lon;timestamp;P1;durP1;ratioP1;P2;durP2;ratioP2
3563;SDS011;1796;52.388;13.096;2023-06-10T00:01:38;11.30;;;5.20;;
3563;SDS011;1796;52.388;13.096;2023-06-10T00:04:05;11.70;;;5.00;;
3563;SDS011;1796;52.388;13.096;2023-06-10T00:06:32;12.30;;;5.50;;
3563;SDS011;1796;52.388;13.096;2023-06-10T00:09:01;9.07;;;4.80;;
3563;SDS011;1796;52.388;13.096;2023-06-10T00:11:30;14.60;;;5.00;;
3563;SDS011;1796;52.388;13.096;2023-06-10T00:13:59;12.43;;;5.40;;
3563;SDS011;1796;52.388;13.096;2023-06-10T00:16:26;17.93;;;5.57;;
3563;SDS011;1796;52.388;13.096;2023-06-10T00:18:53;16.37;;;6.60;;
3563;SDS011;1796;52.388;13.096;2023-06-10T00:21:25;10.93;;;5.20;;
3563;SDS011;1796;52.388;13.096;2023-06-10T00:23:52;15.13;;;5.30;;
3563;SDS011;1796;52.388;13.096;2023-06-10T00:26:20;18.27;;;6.00;;
3563;SDS011;1796;52.388;13.096;2023-06-10T00:28:47;10.13;;;5.20;;
3563;SDS011;1796;52.388;13.096;2023-06-10T00:31:16;14.87;;;5.70;;
3563;SDS011;1796;52.388;13.096;2023-06-10T00:33:43;16.80;;;5.57;;
3563;SDS011;1796;52.388;13.096;2023-06-10T00:36:10;15.70;;;5.00;;
3563;SDS011;1796;52.388;13.096;2023-06-10T00:38:36;13.60;;;6.20;;
3563;SDS011;1796;52.388;13.096;2023-06-10T00:41:05;13.47;;;5.30;;
3563;SDS011;1796;52.388;13.096;2023-06-10T00:43:32;9.53;;;4.50;;
3563;SDS011;1796;52.388;13.096;2023-06-10T00:45:59;13.13;;;5.00;;
3563;SDS011;1796;52.388;13.096;2023-06-10T00:48:28;9.27;;;4.80;;
3563;SDS011;1796;52.388;13.096;2023-06-10T00:50:55;11.77;;;5.67;;
3563;SDS011;1796;52.388;13.096;2023-06-10T00:53:23;11.13;;;5.27;;
3563;SDS011;1796;52.388;13.096;2023-06-10T00:55:50;10.90;;;4.97;;
3563;SDS011;1796;52.388;13.096;2023-06-10T00:58:17;10.60;;;5.57;;
3563;SDS011;1796;52.388;13.096;2023-06-10T01:00:44;8.37;;;5.17;;
3563;SDS011;1796;52.388;13.096;2023-06-10T01:03:11;9.03;;;5.50;;
3563;SDS011;1796;52.388;13.096;2023-06-10T01:05:40;9.60;;;5.23;;
3563;SDS011;1796;52.388;13.096;2023-06-10T01:08:09;25.30;;;5.67;;
3563;SDS011;1796;52.388;13.096;2023-06-10T01:10:47;15.73;;;5.17;;
3563;SDS011;1796;52.388;13.096;2023-06-10T01:13:17;8.40;;;4.93;;
3563;SDS011;1796;52.388;13.096;2023-06-10T01:15:49;9.33;;;4.80;;
3563;SDS011;1796;52.388;13.096;2023-06-10T01:18:17;16.83;;;5.10;;
3563;SDS011;1796;52.388;13.096;2023-06-10T01:20:46;16.03;;;5.70;;
3563;SDS011;1796;52.388;13.096;2023-06-10T01:23:15;13.63;;;5.40;;
3563;SDS011;1796;52.388;13.096;2023-06-10T01:25:43;20.97;;;5.37;;
3563;SDS011;1796;52.388;13.096;2023-06-10T01:28:14;9.03;;;5.20;;
3563;SDS011;1796;52.388;13.096;2023-06-10T01:30:48;7.93;;;5.10;;
3563;SDS011;1796;52.388;13.096;2023-06-10T01:33:23;6.33;;;4.80;;
3563;SDS011;1796;52.388;13.096;2023-06-10T01:35:54;10.43;;;4.70;;
3563;SDS011;1796;52.388;13.096;2023-06-10T01:38:24;12.20;;;5.70;;
3563;SDS011;1796;52.388;13.096;2023-06-10T01:40:53;12.00;;;4.43;;
3563;SDS011;1796;52.388;13.096;2023-06-10T01:43:21;17.60;;;5.30;;
3563;SDS011;1796;52.388;13.096;2023-06-10T01:45:48;11.20;;;5.60;;
3563;SDS011;1796;52.388;13.096;2023-06-10T01:48:15;12.47;;;4.77;;
3563;SDS011;1796;52.388;13.096;2023-06-10T01:50:42;12.03;;;5.50;;
3563;SDS011;1796;52.388;13.096;2023-06-10T01:53:09;14.13;;;5.83;;
3563;SDS011;1796;52.388;13.096;2023-06-10T01:55:37;11.37;;;4.87;;
3563;SDS011;1796;52.388;13.096;2023-06-10T01:58:04;8.33;;;5.53;;
3563;SDS011;1796;52.388;13.096;2023-06-10T02:00:31;9.10;;;4.80;;
3563;SDS011;1796;52.388;13.096;2023-06-10T02:02:58;14.93;;;5.80;;
3563;SDS011;1796;52.388;13.096;2023-06-10T02:05:25;9.70;;;4.80;;
3563;SDS011;1796;52.388;13.096;2023-06-10T02:07:51;17.33;;;5.40;;
3563;SDS011;1796;52.388;13.096;2023-06-10T02:10:18;10.37;;;4.93;;
3563;SDS011;1796;52.388;13.096;2023-06-10T02:12:46;15.17;;;5.90;;
3563;SDS011;1796;52.388;13.096;2023-06-10T02:15:13;24.83;;;4.77;;
3563;SDS011;1796;52.388;13.096;2023-06-10T02:17:40;11.30;;;4.87;;
3563;SDS011;1796;52.388;13.096;2023-06-10T02:20:07;10.73;;;4.50;;
3563;SDS011;1796;52.388;13.096;2023-06-10T02:22:35;15.73;;;5.20;;
3563;SDS011;1796;52.388;13.096;2023-06-10T02:25:03;23.33;;;5.20;;
3563;SDS011;1796;52.388;13.096;2023-06-10T02:27:31;15.33;;;4.73;;
3563;SDS011;1796;52.388;13.096;2023-06-10T02:29:59;17.77;;;4.70;;
3563;SDS011;1796;52.388;13.096;2023-06-10T02:32:26;10.03;;;5.00;;
3563;SDS011;1796;52.388;13.096;2023-06-10T02:34:53;16.37;;;4.80;;
3563;SDS011;1796;52.388;13.096;2023-06-10T02:37:20;7.97;;;4.80;;
3563;SDS011;1796;52.388;13.096;2023-06-10T02:39:47;13.97;;;5.50;;
3563;SDS011;1796;52.388;13.096;2023-06-10T02:42:14;16.00;;;5.20;;
3563;SDS011;1796;52.388;13.096;2023-06-10T02:44:40;13.13;;;4.77;;
3563;SDS011;1796;52.388;13.096;2023-06-10T02:47:09;19.30;;;4.93;;
3563;SDS011;1796;52.388;13.096;2023-06-10T02:49:35;17.90;;;5.20;;
3563;SDS011;1796;52.388;13.096;2023-06-10T02:52:02;12.37;;;4.93;;
3563;SDS011;1796;52.388;13.096;2023-06-10T02:54:29;10.63;;;5.30;;
3563;SDS011;1796;52.388;13.096;2023-06-10T02:56:56;13.37;;;5.33;;
3563;SDS011;1796;52.388;13.096;2023-06-10T02:59:23;13.30;;;4.53;;
3563;SDS011;1796;52.388;13.096;2023-06-10T03:01:52;12.93;;;4.90;;
3563;SDS011;1796;52.388;13.096;2023-06-10T03:04:20;9.77;;;5.23;;
3563;SDS011;1796;52.388;13.096;2023-06-10T03:06:48;22.80;;;5.47;;
3563;SDS011;1796;52.388;13.096;2023-06-10T03:09:15;15.77;;;5.17;;
3563;SDS011;1796;52.388;13.096;2023-06-10T03:11:42;19.60;;;5.33;;
3563;SDS011;1796;52.388;13.096;2023-06-10T03:14:09;12.43;;;5.13;;
3563;SDS011;1796;52.388;13.096;2023-06-10T03:16:35;15.57;;;4.80;;
3563;SDS011;1796;52.388;13.096;2023-06-10T03:19:05;10.70;;;5.00;;
3563;SDS011;1796;52.388;13.096;2023-06-10T03:21:33;18.10;;;5.33;;
3563;SDS011;1796;52.388;13.096;2023-06-10T03:24:00;16.80;;;5.33;;
3563;SDS011;1796;52.388;13.096;2023-06-10T03:26:28;13.50;;;4.97;;
3563;SDS011;1796;52.388;13.096;2023-06-10T03:28:55;13.40;;;4.90;;
3563;SDS011;1796;52.388;13.096;2023-06-10T03:31:22;13.43;;;5.07;;
3563;SDS011;1796;52.388;13.096;2023-06-10T03:33:49;16.73;;;4.60;;
3563;SDS011;1796;52.388;13.096;2023-06-10T03:36:16;14.53;;;5.07;;
3563;SDS011;1796;52.388;13.096;2023-06-10T03:38:44;19.67;;;6.00;;
3563;SDS011;1796;52.388;13.096;2023-06-10T03:41:11;9.97;;;4.40;;
3563;SDS011;1796;52.388;13.096;2023-06-10T03:43:38;13.50;;;5.03;;
3563;SDS011;1796;52.388;13.096;2023-06-10T03:46:07;16.47;;;5.37;;
3563;SDS011;1796;52.388;13.096;2023-06-10T03:48:34;6.97;;;4.70;;
3563;SDS011;1796;52.388;13.096;2023-06-10T03:51:01;12.40;;;5.20;;
3563;SDS011;1796;52.388;13.096;2023-06-10T03:53:28;12.20;;;4.77;;
3563;SDS011;1796;52.388;13.096;2023-06-10T03:55:56;18.00;;;6.17;;
3563;SDS011;1796;52.388;13.096;2023-06-10T03:58:23;11.20;;;5.00;;
3563;SDS011;1796;52.388;13.096;2023-06-10T04:00:50;8.87;;;4.10;;
3563;SDS011;1796;52.388;13.096;2023-06-10T04:03:18;9.47;;;4.63;;
3563;SDS011;1796;52.388;13.096;2023-06-10T04:05:46;9.03;;;4.43;;
3563;SDS011;1796;52.388;13.096;2023-06-10T04:08:13;8.60;;;4.67;;
3563;SDS011;1796;52.388;13.096;2023-06-10T04:10:39;7.83;;;4.60;;
3563;SDS011;1796;52.388;13.096;2023-06-10T04:13:08;23.83;;;5.17;;
3563;SDS011;1796;52.388;13.096;2023-06-10T04:15:35;9.63;;;4.50;;
3563;SDS011;1796;52.388;13.096;2023-06-10T04:18:02;12.40;;;5.50;;
3563;SDS011;1796;52.388;13.096;2023-06-10T04:20:30;13.70;;;5.47;;
3563;SDS011;1796;52.388;13.096;2023-06-10T04:22:57;12.77;;;5.23;;
3563;SDS011;1796;52.388;13.096;2023-06-10T04:25:24;14.30;;;6.27;;
3563;SDS011;1796;52.388;13.096;2023-06-10T04:27:52;19.60;;;6.43;;
3563;SDS011;1796;52.388;13.096;2023-06-10T04:30:20;13.70;;;5.80;;
3563;SDS011;1796;52.388;13.096;2023-06-10T04:32:47;15.73;;;5.10;;
3563;SDS011;1796;52.388;13.096;2023-06-10T04:35:14;14.07;;;5.80;;
3563;SDS011;1796;52.388;13.096;2023-06-10T04:37:42;9.57;;;5.50;;
3563;SDS011;1796;52.388;13.096;2023-06-10T04:40:09;16.93;;;6.17;;
3563;SDS011;1796;52.388;13.096;2023-06-10T04:42:36;16.63;;;4.80;;
3563;SDS011;1796;52.388;13.096;2023-06-10T04:45:04;14.50;;;6.03;;
3563;SDS011;1796;52.388;13.096;2023-06-10T04:47:33;14.03;;;5.53;;
3563;SDS011;1796;52.388;13.096;2023-06-10T04:50:00;9.97;;;5.50;;
3563;SDS011;1796;52.388;13.096;2023-06-10T04:52:27;10.30;;;4.90;;
3563;SDS011;1796;52.388;13.096;2023-06-10T04:54:54;15.73;;;5.47;;
3563;SDS011;1796;52.388;13.096;2023-06-10T04:57:21;9.37;;;5.43;;
3563;SDS011;1796;52.388;13.096;2023-06-10T04:59:48;12.73;;;6.07;;
3563;SDS011;1796;52.388;13.096;2023-06-10T05:02:15;15.90;;;5.33;;
3563;SDS011;1796;52.388;13.096;2023-06-10T05:04:43;11.07;;;5.10;;
3563;SDS011;1796;52.388;13.096;2023-06-10T05:07:10;11.63;;;5.63;;
3563;SDS011;1796;52.388;13.096;2023-06-10T05:09:37;16.53;;;6.03;;
3563;SDS011;1796;52.388;13.096;2023-06-10T05:12:04;9.87;;;4.70;;
3563;SDS011;1796;52.388;13.096;2023-06-10T05:14:32;9.87;;;5.23;;
3563;SDS011;1796;52.388;13.096;2023-06-10T05:16:58;14.40;;;4.23;;
3563;SDS011;1796;52.388;13.096;2023-06-10T05:19:25;13.80;;;5.40;;
3563;SDS011;1796;52.388;13.096;2023-06-10T05:21:53;15.03;;;5.30;;
3563;SDS011;1796;52.388;13.096;2023-06-10T05:24:20;8.40;;;4.80;;
3563;SDS011;1796;52.388;13.096;2023-06-10T05:26:48;9.93;;;4.73;;
3563;SDS011;1796;52.388;13.096;2023-06-10T05:29:15;9.80;;;5.17;;
3563;SDS011;1796;52.388;13.096;2023-06-10T05:31:42;9.47;;;5.60;;
3563;SDS011;1796;52.388;13.096;2023-06-10T05:34:08;11.10;;;5.50;;
3563;SDS011;1796;52.388;13.096;2023-06-10T05:36:35;12.67;;;5.00;;
3563;SDS011;1796;52.388;13.096;2023-06-10T05:39:03;7.80;;;4.93;;
3563;SDS011;1796;52.388;13.096;2023-06-10T05:41:30;13.53;;;5.70;;
3563;SDS011;1796;52.388;13.096;2023-06-10T05:43:57;12.83;;;5.37;;
3563;SDS011;1796;52.388;13.096;2023-06-10T05:46:24;7.63;;;4.97;;
3563;SDS011;1796;52.388;13.096;2023-06-10T05:48:51;8.93;;;5.27;;
3563;SDS011;1796;52.388;13.096;2023-06-10T05:51:17;14.30;;;5.50;;
3563;SDS011;1796;52.388;13.096;2023-06-10T05:53:44;12.57;;;5.37;;
3563;SDS011;1796;52.388;13.096;2023-06-10T05:56:12;11.73;;;5.23;;
3563;SDS011;1796;52.388;13.096;2023-06-10T05:58:39;14.20;;;5.60;;
3563;SDS011;1796;52.388;13.096;2023-06-10T06:01:06;14.13;;;5.87;;
3563;SDS011;1796;52.388;13.096;2023-06-10T06:03:33;5.80;;;4.47;;
3563;SDS011;1796;52.388;13.096;2023-06-10T06:06:00;8.87;;;5.03;;
3563;SDS011;1796;52.388;13.096;2023-06-10T06:08:27;7.00;;;5.47;;
3563;SDS011;1796;52.388;13.096;2023-06-10T06:10:53;10.30;;;5.80;;
3563;SDS011;1796;52.388;13.096;2023-06-10T06:13:22;12.50;;;6.20;;
3563;SDS011;1796;52.388;13.096;2023-06-10T06:15:49;11.13;;;6.10;;
3563;SDS011;1796;52.388;13.096;2023-06-10T06:18:16;10.07;;;5.77;;
3563;SDS011;1796;52.388;13.096;2023-06-10T06:20:43;10.90;;;6.80;;
3563;SDS011;1796;52.388;13.096;2023-06-10T06:23:10;10.50;;;5.90;;
3563;SDS011;1796;52.388;13.096;2023-06-10T06:25:37;13.10;;;6.57;;
3563;SDS011;1796;52.388;13.096;2023-06-10T06:28:04;18.23;;;6.57;;
3563;SDS011;1796;52.388;13.096;2023-06-10T06:30:33;10.03;;;6.10;;
3563;SDS011;1796;52.388;13.096;2023-06-10T06:33:00;11.13;;;6.23;;
3563;SDS011;1796;52.388;13.096;2023-06-10T06:35:27;12.60;;;5.73;;
3563;SDS011;1796;52.388;13.096;2023-06-10T06:37:53;12.23;;;5.50;;
3563;SDS011;1796;52.388;13.096;2023-06-10T06:40:20;8.87;;;5.90;;
3563;SDS011;1796;52.388;13.096;2023-06-10T06:42:47;17.30;;;5.90;;
3563;SDS011;1796;52.388;13.096;2023-06-10T06:45:14;13.33;;;5.73;;
3563;SDS011;1796;52.388;13.096;2023-06-10T06:47:42;17.93;;;6.23;;
3563;SDS011;1796;52.388;13.096;2023-06-10T06:50:09;11.23;;;5.73;;
3563;SDS011;1796;52.388;13.096;2023-06-10T06:52:36;9.50;;;5.87;;
3563;SDS011;1796;52.388;13.096;2023-06-10T06:55:03;19.87;;;6.37;;
3563;SDS011;1796;52.388;13.096;2023-06-10T06:57:30;8.40;;;5.40;;
3563;SDS011;1796;52.388;13.096;2023-06-10T06:59:57;12.07;;;5.80;;
3563;SDS011;1796;52.388;13.096;2023-06-10T07:02:24;7.40;;;4.80;;
3563;SDS011;1796;52.388;13.096;2023-06-10T07:04:52;11.60;;;5.10;;
3563;SDS011;1796;52.388;13.096;2023-06-10T07:07:21;9.43;;;5.10;;
3563;SDS011;1796;52.388;13.096;2023-06-10T07:09:47;11.83;;;5.23;;
3563;SDS011;1796;52.388;13.096;2023-06-10T07:12:14;7.90;;;5.63;;
3563;SDS011;1796;52.388;13.096;2023-06-10T07:14:42;6.30;;;5.70;;
3563;SDS011;1796;52.388;13.096;2023-06-10T07:17:09;8.23;;;5.43;;
3563;SDS011;1796;52.388;13.096;2023-06-10T07:19:36;9.43;;;5.33;;
3563;SDS011;1796;52.388;13.096;2023-06-10T07:22:05;14.83;;;6.20;;
3563;SDS011;1796;52.388;13.096;2023-06-10T07:24:32;9.27;;;5.93;;
3563;SDS011;1796;52.388;13.096;2023-06-10T07:26:59;15.73;;;6.43;;
3563;SDS011;1796;52.388;13.096;2023-06-10T07:29:25;8.30;;;5.30;;
3563;SDS011;1796;52.388;13.096;2023-06-10T07:31:52;9.27;;;5.23;;
3563;SDS011;1796;52.388;13.096;2023-06-10T07:34:19;6.60;;;4.87;;
3563;SDS011;1796;52.388;13.096;2023-06-10T07:36:46;9.37;;;5.37;;
3563;SDS011;1796;52.388;13.096;2023-06-10T07:39:14;15.83;;;5.50;;
3563;SDS011;1796;52.388;13.096;2023-06-10T07:41:41;5.90;;;5.30;;
3563;SDS011;1796;52.388;13.096;2023-06-10T07:44:08;22.10;;;5.50;;
3563;SDS011;1796;52.388;13.096;2023-06-10T07:46:35;15.60;;;5.97;;
3563;SDS011;1796;52.388;13.096;2023-06-10T07:49:02;5.83;;;5.10;;
3563;SDS011;1796;52.388;13.096;2023-06-10T07:51:28;8.20;;;4.90;;
3563;SDS011;1796;52.388;13.096;2023-06-10T07:53:55;7.67;;;5.63;;
3563;SDS011;1796;52.388;13.096;2023-06-10T07:56:23;12.33;;;6.00;;
3563;SDS011;1796;52.388;13.096;2023-06-10T07:58:51;15.00;;;5.90;;
3563;SDS011;1796;52.388;13.096;2023-06-10T08:01:18;9.50;;;5.13;;
3563;SDS011;1796;52.388;13.096;2023-06-10T08:03:45;11.23;;;6.00;;
3563;SDS011;1796;52.388;13.096;2023-06-10T08:06:12;8.33;;;5.90;;
3563;SDS011;1796;52.388;13.096;2023-06-10T08:08:39;9.57;;;5.17;;
3563;SDS011;1796;52.388;13.096;2023-06-10T08:11:08;7.07;;;4.80;;
3563;SDS011;1796;52.388;13.096;2023-06-10T08:13:36;5.40;;;5.00;;
3563;SDS011;1796;52.388;13.096;2023-06-10T08:16:03;10.70;;;5.53;;
3563;SDS011;1796;52.388;13.096;2023-06-10T08:18:30;8.13;;;5.17;;
3563;SDS011;1796;52.388;13.096;2023-06-10T08:20:58;12.07;;;5.40;;
3563;SDS011;1796;52.388;13.096;2023-06-10T08:23:25;9.70;;;4.90;;
3563;SDS011;1796;52.388;13.096;2023-06-10T08:25:52;10.73;;;5.00;;
3563;SDS011;1796;52.388;13.096;2023-06-10T08:28:19;5.87;;;5.33;;
3563;SDS011;1796;52.388;13.096;2023-06-10T08:30:47;8.77;;;4.90;;
3563;SDS011;1796;52.388;13.096;2023-06-10T08:33:14;13.63;;;5.33;;
3563;SDS011;1796;52.388;13.096;2023-06-10T08:35:41;11.00;;;5.57;;
3563;SDS011;1796;52.388;13.096;2023-06-10T08:38:07;6.80;;;5.63;;
3563;SDS011;1796;52.388;13.096;2023-06-10T08:40:34;8.53;;;4.90;;
3563;SDS011;1796;52.388;13.096;2023-06-10T08:43:04;5.60;;;4.90;;
3563;SDS011;1796;52.388;13.096;2023-06-10T08:45:33;7.00;;;5.27;;
3563;SDS011;1796;52.388;13.096;2023-06-10T08:48:03;17.57;;;5.67;;
3563;SDS011;1796;52.388;13.096;2023-06-10T08:50:32;9.87;;;5.53;;
3563;SDS011;1796;52.388;13.096;2023-06-10T08:53:01;12.03;;;4.70;;
3563;SDS011;1796;52.388;13.096;2023-06-10T08:55:31;10.13;;;5.10;;
3563;SDS011;1796;52.388;13.096;2023-06-10T08:57:59;9.83;;;5.50;;
3563;SDS011;1796;52.388;13.096;2023-06-10T09:00:26;16.13;;;6.30;;
3563;SDS011;1796;52.388;13.096;2023-06-10T09:02:55;9.97;;;5.80;;
3563;SDS011;1796;52.388;13.096;2023-06-10T09:05:24;15.63;;;7.20;;
3563;SDS011;1796;52.388;13.096;2023-06-10T09:07:52;11.03;;;5.43;;
3563;SDS011;1796;52.388;13.096;2023-06-10T09:10:19;11.80;;;6.20;;
3563;SDS011;1796;52.388;13.096;2023-06-10T09:12:46;11.37;;;6.37;;
3563;SDS011;1796;52.388;13.096;2023-06-10T09:15:13;15.10;;;6.43;;
3563;SDS011;1796;52.388;13.096;2023-06-10T09:17:42;16.50;;;7.23;;
3563;SDS011;1796;52.388;13.096;2023-06-10T09:20:10;15.47;;;6.60;;
3563;SDS011;1796;52.388;13.096;2023-06-10T09:22:39;9.00;;;5.80;;
3563;SDS011;1796;52.388;13.096;2023-06-10T09:25:08;10.50;;;6.63;;
3563;SDS011;1796;52.388;13.096;2023-06-10T09:27:43;14.50;;;6.97;;
3563;SDS011;1796;52.388;13.096;2023-06-10T09:30:23;15.60;;;7.73;;
3563;SDS011;1796;52.388;13.096;2023-06-10T09:32:52;17.53;;;6.00;;
3563;SDS011;1796;52.388;13.096;2023-06-10T09:35:20;12.90;;;7.60;;
3563;SDS011;1796;52.388;13.096;2023-06-10T09:37:50;12.43;;;6.93;;
3563;SDS011;1796;52.388;13.096;2023-06-10T09:40:18;8.93;;;6.70;;
3563;SDS011;1796;52.388;13.096;2023-06-10T09:42:46;10.53;;;7.53;;
3563;SDS011;1796;52.388;13.096;2023-06-10T09:45:18;9.20;;;6.60;;
3563;SDS011;1796;52.388;13.096;2023-06-10T09:47:45;15.40;;;7.00;;
3563;SDS011;1796;52.388;13.096;2023-06-10T09:50:12;12.70;;;6.23;;
3563;SDS011;1796;52.388;13.096;2023-06-10T09:52:39;11.03;;;7.63;;
3563;SDS011;1796;52.388;13.096;2023-06-10T09:55:09;13.87;;;7.50;;
3563;SDS011;1796;52.388;13.096;2023-06-10T09:57:36;22.40;;;7.83;;
3563;SDS011;1796;52.388;13.096;2023-06-10T10:00:04;16.80;;;7.23;;
3563;SDS011;1796;52.388;13.096;2023-06-10T10:02:33;12.80;;;7.60;;
3563;SDS011;1796;52.388;13.096;2023-06-10T10:05:12;12.73;;;8.00;;
3563;SDS011;1796;52.388;13.096;2023-06-10T10:07:39;10.33;;;6.60;;
3563;SDS011;1796;52.388;13.096;2023-06-10T10:10:06;17.40;;;7.27;;
3563;SDS011;1796;52.388;13.096;2023-06-10T10:12:35;10.70;;;7.10;;
3563;SDS011;1796;52.388;13.096;2023-06-10T10:15:04;13.63;;;7.60;;
3563;SDS011;1796;52.388;13.096;2023-06-10T10:17:33;8.07;;;6.50;;
3563;SDS011;1796;52.388;13.096;2023-06-10T10:20:01;15.20;;;6.80;;
3563;SDS011;1796;52.388;13.096;2023-06-10T10:22:31;6.97;;;5.90;;
3563;SDS011;1796;52.388;13.096;2023-06-10T10:25:05;10.17;;;7.20;;
3563;SDS011;1796;52.388;13.096;2023-06-10T10:27:39;6.73;;;6.07;;
3563;SDS011;1796;52.388;13.096;2023-06-10T10:30:09;11.20;;;6.43;;
3563;SDS011;1796;52.388;13.096;2023-06-10T10:32:40;9.40;;;6.47;;
3563;SDS011;1796;52.388;13.096;2023-06-10T10:35:17;9.40;;;6.63;;
3563;SDS011;1796;52.388;13.096;2023-06-10T10:37:48;23.43;;;6.43;;
3563;SDS011;1796;52.388;13.096;2023-06-10T10:40:16;18.13;;;6.30;;
3563;SDS011;1796;52.388;13.096;2023-06-10T10:42:43;10.90;;;6.77;;
3563;SDS011;1796;52.388;13.096;2023-06-10T10:45:10;14.03;;;7.50;;
3563;SDS011;1796;52.388;13.096;2023-06-10T10:47:38;10.73;;;6.60;;
3563;SDS011;1796;52.388;13.096;2023-06-10T10:50:15;9.90;;;6.07;;
3563;SDS011;1796;52.388;13.096;2023-06-10T10:52:46;16.93;;;6.97;;
3563;SDS011;1796;52.388;13.096;2023-06-10T10:55:20;10.70;;;7.50;;
3563;SDS011;1796;52.388;13.096;2023-06-10T10:57:53;11.73;;;6.50;;
3563;SDS011;1796;52.388;13.096;2023-06-10T11:00:30;7.17;;;6.47;;
3563;SDS011;1796;52.388;13.096;2023-06-10T11:02:58;7.30;;;6.27;;
3563;SDS011;1796;52.388;13.096;2023-06-10T11:05:36;15.23;;;8.00;;
3563;SDS011;1796;52.388;13.096;2023-06-10T11:08:04;8.83;;;6.90;;
3563;SDS011;1796;52.388;13.096;2023-06-10T11:10:34;11.00;;;6.97;;
3563;SDS011;1796;52.388;13.096;2023-06-10T11:13:05;8.50;;;6.60;;
3563;SDS011;1796;52.388;13.096;2023-06-10T11:15:37;9.57;;;6.30;;
3563;SDS011;1796;52.388;13.096;2023-06-10T11:18:10;10.03;;;6.60;;
3563;SDS011;1796;52.388;13.096;2023-06-10T11:23:40;8.90;;;5.97;;
3563;SDS011;1796;52.388;13.096;2023-06-10T11:26:29;5.80;;;5.20;;
3563;SDS011;1796;52.388;13.096;2023-06-10T11:29:00;6.33;;;5.30;;
3563;SDS011;1796;52.388;13.096;2023-06-10T11:31:33;8.67;;;5.20;;
3563;SDS011;1796;52.388;13.096;2023-06-10T11:34:07;7.47;;;4.93;;
3563;SDS011;1796;52.388;13.096;2023-06-10T11:36:36;4.90;;;4.50;;
3563;SDS011;1796;52.388;13.096;2023-06-10T11:39:07;7.77;;;5.67;;
3563;SDS011;1796;52.388;13.096;2023-06-10T11:41:37;9.90;;;4.50;;
3563;SDS011;1796;52.388;13.096;2023-06-10T11:44:07;6.80;;;4.53;;
3563;SDS011;1796;52.388;13.096;2023-06-10T11:46:35;6.10;;;4.67;;
3563;SDS011;1796;52.388;13.096;2023-06-10T11:49:02;5.30;;;4.83;;
3563;SDS011;1796;52.388;13.096;2023-06-10T11:51:32;15.10;;;4.57;;
3563;SDS011;1796;52.388;13.096;2023-06-10T11:54:00;5.77;;;4.43;;
3563;SDS011;1796;52.388;13.096;2023-06-10T11:56:27;8.30;;;4.93;;
3563;SDS011;1796;52.388;13.096;2023-06-10T11:58:57;7.13;;;5.23;;
3563;SDS011;1796;52.388;13.096;2023-06-10T12:01:29;13.63;;;5.47;;
3563;SDS011;1796;52.388;13.096;2023-06-10T12:03:57;8.27;;;4.90;;
3563;SDS011;1796;52.388;13.096;2023-06-10T12:06:24;5.67;;;5.07;;
3563;SDS011;1796;52.388;13.096;2023-06-10T12:08:52;5.70;;;5.20;;
3563;SDS011;1796;52.388;13.096;2023-06-10T12:11:20;6.70;;;5.97;;
3563;SDS011;1796;52.388;13.096;2023-06-10T12:13:48;7.40;;;5.03;;
3563;SDS011;1796;52.388;13.096;2023-06-10T12:16:17;7.93;;;5.63;;
3563;SDS011;1796;52.388;13.096;2023-06-10T12:18:46;6.50;;;5.83;;
3563;SDS011;1796;52.388;13.096;2023-06-10T12:21:20;6.17;;;5.23;;
3563;SDS011;1796;52.388;13.096;2023-06-10T12:24:05;13.90;;;5.60;;
3563;SDS011;1796;52.388;13.096;2023-06-10T12:26:37;8.03;;;5.30;;
3563;SDS011;1796;52.388;13.096;2023-06-10T12:29:12;6.23;;;5.47;;
3563;SDS011;1796;52.388;13.096;2023-06-10T12:32:00;6.30;;;5.70;;
3563;SDS011;1796;52.388;13.096;2023-06-10T12:34:34;5.97;;;5.43;;
3563;SDS011;1796;52.388;13.096;2023-06-10T12:37:03;5.97;;;5.47;;
3563;SDS011;1796;52.388;13.096;2023-06-10T12:39:31;13.93;;;4.90;;
3563;SDS011;1796;52.388;13.096;2023-06-10T12:41:59;5.90;;;4.73;;
3563;SDS011;1796;52.388;13.096;2023-06-10T12:44:30;5.73;;;5.13;;
3563;SDS011;1796;52.388;13.096;2023-06-10T12:46:57;6.50;;;5.50;;
3563;SDS011;1796;52.388;13.096;2023-06-10T12:49:25;9.90;;;5.17;;
3563;SDS011;1796;52.388;13.096;2023-06-10T12:51:52;11.80;;;5.43;;
3563;SDS011;1796;52.388;13.096;2023-06-10T12:54:19;10.57;;;5.53;;
3563;SDS011;1796;52.388;13.096;2023-06-10T12:56:46;6.50;;;4.80;;
3563;SDS011;1796;52.388;13.096;2023-06-10T12:59:13;6.03;;;5.50;;
3563;SDS011;1796;52.388;13.096;2023-06-10T13:01:40;6.17;;;5.10;;
3563;SDS011;1796;52.388;13.096;2023-06-10T13:04:07;6.83;;;5.00;;
3563;SDS011;1796;52.388;13.096;2023-06-10T13:06:36;5.47;;;4.97;;
3563;SDS011;1796;52.388;13.096;2023-06-10T13:09:04;7.53;;;5.00;;
3563;SDS011;1796;52.388;13.096;2023-06-10T13:11:32;8.43;;;5.60;;
3563;SDS011;1796;52.388;13.096;2023-06-10T13:14:00;7.30;;;5.40;;
3563;SDS011;1796;52.388;13.096;2023-06-10T13:16:27;5.40;;;5.00;;
3563;SDS011;1796;52.388;13.096;2023-06-10T13:18:55;7.83;;;5.53;;
3563;SDS011;1796;52.388;13.096;2023-06-10T13:21:22;9.00;;;5.87;;
3563;SDS011;1796;52.388;13.096;2023-06-10T13:23:51;6.50;;;5.90;;
3563;SDS011;1796;52.388;13.096;2023-06-10T13:26:18;5.87;;;5.47;;
3563;SDS011;1796;52.388;13.096;2023-06-10T13:28:45;5.70;;;5.27;;
3563;SDS011;1796;52.388;13.096;2023-06-10T13:31:12;7.97;;;6.07;;
3563;SDS011;1796;52.388;13.096;2023-06-10T13:33:39;5.83;;;5.30;;
3563;SDS011;1796;52.388;13.096;2023-06-10T13:36:08;6.30;;;5.67;;
3563;SDS011;1796;52.388;13.096;2023-06-10T13:38:35;9.63;;;5.60;;
3563;SDS011;1796;52.388;13.096;2023-06-10T13:41:03;11.80;;;5.70;;
3563;SDS011;1796;52.388;13.096;2023-06-10T13:43:30;8.43;;;5.53;;
3563;SDS011;1796;52.388;13.096;2023-06-10T13:45:57;8.70;;;6.00;;
3563;SDS011;1796;52.388;13.096;2023-06-10T13:48:25;9.87;;;7.03;;
3563;SDS011;1796;52.388;13.096;2023-06-10T13:50:52;11.13;;;5.70;;
3563;SDS011;1796;52.388;13.096;2023-06-10T13:53:18;7.20;;;6.57;;
3563;SDS011;1796;52.388;13.096;2023-06-10T13:55:45;5.67;;;5.20;;
3563;SDS011;1796;52.388;13.096;2023-06-10T13:58:13;5.83;;;5.23;;
3563;SDS011;1796;52.388;13.096;2023-06-10T14:00:40;8.10;;;6.27;;
3563;SDS011;1796;52.388;13.096;2023-06-10T14:03:07;9.43;;;6.43;;
3563;SDS011;1796;52.388;13.096;2023-06-10T14:05:34;6.90;;;5.60;;
3563;SDS011;1796;52.388;13.096;2023-06-10T14:08:01;10.03;;;6.27;;
3563;SDS011;1796;52.388;13.096;2023-06-10T14:10:28;19.80;;;6.83;;
3563;SDS011;1796;52.388;13.096;2023-06-10T14:12:55;8.10;;;6.00;;
3563;SDS011;1796;52.388;13.096;2023-06-10T14:15:23;8.30;;;6.23;;
3563;SDS011;1796;52.388;13.096;2023-06-10T14:17:50;10.60;;;6.47;;
3563;SDS011;1796;52.388;13.096;2023-06-10T14:20:17;16.93;;;7.23;;
3563;SDS011;1796;52.388;13.096;2023-06-10T14:22:46;12.40;;;6.60;;
3563;SDS011;1796;52.388;13.096;2023-06-10T14:25:13;9.23;;;6.30;;
3563;SDS011;1796;52.388;13.096;2023-06-10T14:27:40;22.17;;;6.70;;
3563;SDS011;1796;52.388;13.096;2023-06-10T14:30:07;10.73;;;6.60;;
3563;SDS011;1796;52.388;13.096;2023-06-10T14:32:35;13.67;;;7.73;;
3563;SDS011;1796;52.388;13.096;2023-06-10T14:35:03;14.20;;;7.70;;
3563;SDS011;1796;52.388;13.096;2023-06-10T14:37:30;14.17;;;7.43;;
3563;SDS011;1796;52.388;13.096;2023-06-10T14:39:57;12.53;;;7.77;;
3563;SDS011;1796;52.388;13.096;2023-06-10T14:42:24;10.13;;;8.53;;
3563;SDS011;1796;52.388;13.096;2023-06-10T14:44:50;12.50;;;8.03;;
3563;SDS011;1796;52.388;13.096;2023-06-10T14:47:17;11.07;;;9.13;;
3563;SDS011;1796;52.388;13.096;2023-06-10T14:49:46;14.83;;;9.70;;
3563;SDS011;1796;52.388;13.096;2023-06-10T14:52:12;18.60;;;10.50;;
3563;SDS011;1796;52.388;13.096;2023-06-10T14:54:39;17.43;;;9.27;;
3563;SDS011;1796;52.388;13.096;2023-06-10T14:57:06;14.83;;;10.13;;
3563;SDS011;1796;52.388;13.096;2023-06-10T14:59:33;13.70;;;9.00;;
3563;SDS011;1796;52.388;13.096;2023-06-10T15:02:00;14.17;;;8.40;;